Time;durP1;ratioP1;P1;durP2;ratioP2;P2;SDS_P1;SDS_P2;PMS_P1;PMS_P2;Temp;Humidity;BMP_temperature;BMP_pressure;BME280_temperature;BME280_humidity;BME280_pressure;Samples;Min_cycle;Max_cycle;Signal;HPM_P1;HPM_P2
2020/12/22 00:00:37;;;;;;;10.65;4.15;;;;;;;4.50;82.94;100121.63;5064204;28;20072;-54
2020/12/22 00:03:05;;;;;;;8.30;3.60;;;;;;;4.45;82.89;100132.72;5062585;28;20044;-52
2020/12/22 00:05:32;;;;;;;8.50;3.92;;;;;;;4.42;83.16;100136.09;5086120;28;20039;-53
2020/12/22 00:07:59;;;;;;;7.40;3.90;;;;;;;4.41;83.07;100142.69;5076408;28;20094;-53
2020/12/22 00:10:25;;;;;;;6.72;3.90;;;;;;;4.39;82.98;100139.47;5070199;28;20567;-52
2020/12/22 00:12:51;;;;;;;8.20;4.38;;;;;;;4.38;83.17;100137.84;5076626;28;20045;-54
2020/12/22 00:15:18;;;;;;;9.48;4.82;;;;;;;4.34;83.10;100134.97;5076502;28;20045;-54
2020/12/22 00:17:45;;;;;;;12.55;6.15;;;;;;;4.32;83.11;100134.44;5058889;28;20090;-54
2020/12/22 00:20:12;;;;;;;8.18;5.30;;;;;;;4.32;83.00;100127.03;5076020;28;20045;-54
2020/12/22 00:22:40;;;;;;;10.75;5.63;;;;;;;4.30;82.62;100133.97;5055556;28;20504;-53
2020/12/22 00:25:07;;;;;;;6.60;5.13;;;;;;;4.28;83.01;100131.56;5076968;28;20041;-54
2020/12/22 00:27:33;;;;;;;10.60;6.72;;;;;;;4.27;82.72;100134.59;5086622;28;20040;-52
2020/12/22 00:30:01;;;;;;;13.13;6.07;;;;;;;4.23;83.07;100139.13;5081603;28;20407;-53
2020/12/22 00:32:29;;;;;;;10.05;5.40;;;;;;;4.21;83.13;100139.41;5094653;28;20121;-56
2020/12/22 00:34:55;;;;;;;13.93;5.93;;;;;;;4.21;83.01;100149.56;5092449;28;20075;-51
2020/12/22 00:37:21;;;;;;;11.27;5.10;;;;;;;4.20;82.69;100150.72;5094178;28;20044;-55
2020/12/22 00:39:47;;;;;;;12.77;4.80;;;;;;;4.20;82.71;100162.47;5089803;28;20119;-56
2020/12/22 00:42:14;;;;;;;10.25;5.65;;;;;;;4.19;82.35;100154.56;5078191;28;20041;-54
2020/12/22 00:44:41;;;;;;;16.20;5.28;;;;;;;4.16;82.39;100156.00;5061052;28;20394;-56
2020/12/22 00:47:07;;;;;;;11.85;5.20;;;;;;;4.14;82.25;100177.44;5089713;28;20075;-54
2020/12/22 00:49:33;;;;;;;17.67;6.05;;;;;;;4.12;82.13;100176.13;5082411;28;20135;-56
2020/12/22 00:52:00;;;;;;;9.93;5.65;;;;;;;4.10;82.20;100186.63;5084108;28;20076;-55
2020/12/22 00:54:26;;;;;;;18.13;6.10;;;;;;;4.04;82.38;100199.63;5075815;28;20513;-55
2020/12/22 00:56:52;;;;;;;11.80;5.70;;;;;;;4.01;81.97;100197.53;5085212;28;20059;-56
2020/12/22 00:59:19;;;;;;;10.93;6.22;;;;;;;3.96;82.52;100200.41;5095690;28;20079;-54
2020/12/22 01:01:46;;;;;;;8.30;5.18;;;;;;;3.95;82.14;100209.72;5083606;28;20044;-55
2020/12/22 01:04:12;;;;;;;11.80;5.63;;;;;;;3.90;82.03;100223.56;5094922;28;20063;-54
2020/12/22 01:06:40;;;;;;;9.88;5.50;;;;;;;3.84;82.56;100237.69;5069373;28;20045;-55
2020/12/22 01:09:07;;;;;;;10.50;5.32;;;;;;;3.80;82.49;100237.50;5055283;28;20384;-54
2020/12/22 01:11:38;;;;;;;8.38;5.10;;;;;;;3.74;82.54;100235.19;5075255;28;20029;-54
2020/12/22 01:14:06;;;;;;;8.77;4.80;;;;;;;3.70;82.74;100243.25;5095785;28;20042;-54
2020/12/22 01:16:33;;;;;;;12.77;5.13;;;;;;;3.65;82.73;100229.69;5093357;28;20097;-54
2020/12/22 01:18:59;;;;;;;13.10;5.07;;;;;;;3.64;83.15;100233.53;5051879;28;20036;-54
2020/12/22 01:21:26;;;;;;;11.88;5.28;;;;;;;3.57;82.84;100225.75;5084559;28;20048;-56
2020/12/22 01:23:52;;;;;;;10.90;5.50;;;;;;;3.47;83.19;100214.25;5090122;28;20097;-52
2020/12/22 01:26:23;;;;;;;11.57;6.15;;;;;;;3.44;83.57;100223.09;5079941;28;20159;-54
2020/12/22 01:28:50;;;;;;;11.63;5.55;;;;;;;3.44;83.72;100237.56;5068183;28;20068;-55
2020/12/22 01:31:27;;;;;;;8.85;5.07;;;;;;;3.44;83.37;100250.47;5080210;28;20063;-53
2020/12/22 01:33:55;;;;;;;10.63;5.30;;;;;;;3.47;83.32;100255.28;5088916;28;20127;-55
2020/12/22 01:36:22;;;;;;;9.73;5.20;;;;;;;3.46;83.06;100253.69;5072162;28;20072;-52
2020/12/22 01:38:48;;;;;;;11.73;6.10;;;;;;;3.43;83.17;100254.31;5074848;28;20123;-54
2020/12/22 01:41:16;;;;;;;14.65;6.63;;;;;;;3.40;83.16;100263.13;5088460;28;20078;-55
2020/12/22 01:44:01;;;;;;;7.15;4.80;;;;;;;3.36;83.49;100265.66;5056610;28;20478;-52
2020/12/22 01:46:37;;;;;;;7.10;4.82;;;;;;;3.34;83.71;100269.81;5094666;28;20044;-53
2020/12/22 01:49:09;;;;;;;9.43;4.45;;;;;;;3.33;83.52;100276.44;5080656;28;20106;-53
2020/12/22 01:51:36;;;;;;;9.52;5.63;;;;;;;3.33;83.49;100277.25;5090860;28;20074;-55
2020/12/22 01:54:02;;;;;;;15.10;5.13;;;;;;;3.32;83.44;100288.47;5092191;28;20079;-53
2020/12/22 01:56:30;;;;;;;10.07;4.97;;;;;;;3.28;83.86;100282.03;5090334;28;20078;-50
2020/12/22 01:58:57;;;;;;;13.80;5.70;;;;;;;3.28;83.86;100291.03;5090233;28;20113;-55
2020/12/22 02:01:23;;;;;;;16.65;5.68;;;;;;;3.23;83.74;100291.13;5084800;28;20076;-52
2020/12/22 02:03:49;;;;;;;12.07;5.30;;;;;;;3.21;83.90;100300.75;5079457;28;20075;-56
2020/12/22 02:06:16;;;;;;;9.75;5.63;;;;;;;3.21;83.98;100300.75;5086054;28;20449;-54
2020/12/22 02:08:42;;;;;;;13.15;5.72;;;;;;;3.16;83.97;100306.34;5070828;28;20091;-56
2020/12/22 02:11:08;;;;;;;12.57;6.25;;;;;;;3.14;84.22;100303.94;5089854;28;20090;-57
2020/12/22 02:13:34;;;;;;;9.00;4.88;;;;;;;3.11;84.26;100306.47;5074048;28;20110;-52
2020/12/22 02:16:01;;;;;;;17.92;6.28;;;;;;;3.14;84.11;100323.06;5074360;28;20095;-55
2020/12/22 02:18:27;;;;;;;11.70;4.63;;;;;;;3.14;84.23;100319.53;5071711;28;20459;-55
2020/12/22 02:21:01;;;;;;;11.45;4.65;;;;;;;3.10;84.35;100324.78;5056120;28;20492;-54
2020/12/22 02:23:27;;;;;;;14.43;6.07;;;;;;;3.14;83.85;100331.28;5082184;28;20127;-54
2020/12/22 02:25:54;;;;;;;14.18;5.05;;;;;;;3.12;83.90;100347.19;5079073;28;20068;-50
2020/12/22 02:28:20;;;;;;;9.68;4.30;;;;;;;3.12;83.95;100351.84;5082935;28;20083;-53
2020/12/22 02:30:46;;;;;;;13.40;4.47;;;;;;;3.12;83.87;100354.59;5073202;28;20052;-55
2020/12/22 02:33:13;;;;;;;11.50;4.60;;;;;;;3.11;84.32;100363.91;5085943;28;20494;-56
2020/12/22 02:35:40;;;;;;;11.20;4.68;;;;;;;3.13;84.02;100367.13;5073615;28;20127;-54
2020/12/22 02:38:06;;;;;;;9.90;4.15;;;;;;;3.15;83.96;100376.66;5088570;28;20040;-52
2020/12/22 02:40:33;;;;;;;10.07;3.92;;;;;;;3.17;83.77;100379.91;5072971;28;20044;-55
2020/12/22 02:43:10;;;;;;;11.45;4.07;;;;;;;3.19;83.76;100377.66;5065641;28;20080;-51
2020/12/22 02:45:43;;;;;;;8.93;4.15;;;;;;;3.19;83.32;100382.31;5035971;28;20044;-54
2020/12/22 02:48:11;;;;;;;17.00;5.07;;;;;;;3.19;83.59;100379.59;5083946;28;20102;-51
2020/12/22 02:50:39;;;;;;;13.90;4.97;;;;;;;3.19;83.64;100382.31;5090207;28;20086;-53
2020/12/22 02:53:06;;;;;;;11.80;5.03;;;;;;;3.15;83.67;100381.34;5073216;28;20032;-53
2020/12/22 02:55:33;;;;;;;10.85;4.72;;;;;;;3.16;83.45;100382.94;5057126;28;20052;-53
2020/12/22 02:58:00;;;;;;;11.23;4.60;;;;;;;3.15;83.57;100393.06;5075105;28;20044;-52
2020/12/22 03:00:26;;;;;;;8.98;4.22;;;;;;;3.14;83.43;100393.38;5079718;28;20094;-55
2020/12/22 03:02:53;;;;;;;17.85;4.20;;;;;;;3.15;83.47;100397.75;5073519;28;20170;-55
2020/12/22 03:05:19;;;;;;;12.40;3.83;;;;;;;3.11;83.54;100396.72;5065707;28;20082;-54
2020/12/22 03:07:45;;;;;;;14.05;4.28;;;;;;;3.06;83.47;100403.09;5093399;28;20047;-53
2020/12/22 03:10:17;;;;;;;12.90;5.15;;;;;;;3.04;83.45;100397.91;5080013;28;20036;-54
2020/12/22 03:12:45;;;;;;;12.20;5.07;;;;;;;3.03;83.59;100412.72;5073370;28;20064;-52
2020/12/22 03:15:12;;;;;;;11.07;4.13;;;;;;;3.01;83.35;100412.22;5091899;28;20101;-54
2020/12/22 03:17:39;;;;;;;10.73;3.67;;;;;;;3.00;83.63;100417.97;5062078;28;20102;-52
2020/12/22 03:20:10;;;;;;;9.18;4.43;;;;;;;2.98;83.56;100418.28;5087603;28;20075;-55
2020/12/22 03:22:38;;;;;;;14.20;6.03;;;;;;;2.96;83.85;100423.25;5080035;28;20559;-52
2020/12/22 03:25:06;;;;;;;14.00;4.93;;;;;;;2.96;83.95;100416.97;5093256;28;20409;-54
2020/12/22 03:27:33;;;;;;;13.13;4.35;;;;;;;2.93;83.84;100410.19;5084738;28;20058;-52
2020/12/22 03:30:00;;;;;;;8.43;4.13;;;;;;;2.94;83.77;100420.00;5077891;28;20140;-56
2020/12/22 03:32:26;;;;;;;8.30;4.10;;;;;;;2.93;83.73;100423.88;5089742;28;20078;-51
2020/12/22 03:34:52;;;;;;;8.10;3.95;;;;;;;2.92;83.51;100427.69;5072951;28;20442;-54
2020/12/22 03:37:22;;;;;;;11.93;4.78;;;;;;;2.91;83.71;100426.06;5093640;28;20060;-53
2020/12/22 03:39:53;;;;;;;7.53;4.07;;;;;;;2.90;83.36;100434.59;5064902;28;20064;-54
2020/12/22 03:42:19;;;;;;;11.18;4.00;;;;;;;2.90;83.70;100432.66;5077053;28;20071;-52
2020/12/22 03:44:47;;;;;;;6.82;4.22;;;;;;;2.90;83.70;100432.66;5094487;28;20097;-53
2020/12/22 03:47:15;;;;;;;8.93;3.85;;;;;;;2.89;83.46;100428.31;5093086;28;20528;-53
2020/12/22 03:49:42;;;;;;;8.60;3.85;;;;;;;2.86;83.46;100417.97;5089746;28;20064;-54
2020/12/22 03:52:11;;;;;;;10.98;4.55;;;;;;;2.86;83.54;100431.63;5074351;28;20464;-55
2020/12/22 03:54:38;;;;;;;10.55;4.20;;;;;;;2.88;83.92;100426.69;5093661;28;20074;-55
2020/12/22 03:57:06;;;;;;;11.13;3.97;;;;;;;2.89;83.71;100433.75;5092858;28;20378;-51
2020/12/22 03:59:33;;;;;;;12.73;5.05;;;;;;;2.88;83.70;100432.16;5081672;28;20440;-55
2020/12/22 04:02:03;;;;;;;10.85;4.70;;;;;;;2.89;83.35;100439.25;5082420;28;20037;-53
2020/12/22 04:04:31;;;;;;;10.85;5.65;;;;;;;2.85;83.66;100440.97;5078935;28;20714;-55
2020/12/22 04:06:58;;;;;;;14.35;4.55;;;;;;;2.83;83.78;100434.97;5070249;28;20401;-56
2020/12/22 04:09:24;;;;;;;5.57;3.53;;;;;;;2.82;83.67;100446.22;5057311;28;20049;-54
2020/12/22 04:11:51;;;;;;;13.85;4.13;;;;;;;2.84;83.47;100444.81;5056503;28;20072;-54
2020/12/22 04:14:18;;;;;;;15.07;4.38;;;;;;;2.85;83.56;100438.22;5056675;28;20056;-54
2020/12/22 04:16:46;;;;;;;7.03;4.07;;;;;;;2.86;83.64;100439.84;5090813;28;20037;-54
2020/12/22 04:19:13;;;;;;;6.07;3.58;;;;;;;2.84;83.37;100431.13;5076558;28;20046;-55
2020/12/22 04:21:40;;;;;;;7.93;4.25;;;;;;;2.82;83.65;100429.81;5083314;28;20048;-54
2020/12/22 04:24:07;;;;;;;7.28;3.30;;;;;;;2.73;83.63;100437.88;5074539;28;20044;-53
2020/12/22 04:26:34;;;;;;;11.73;4.35;;;;;;;2.73;84.03;100440.63;5091033;28;20047;-54
2020/12/22 04:29:01;;;;;;;9.10;4.35;;;;;;;2.70;83.94;100443.16;5078749;28;20071;-52
2020/12/22 04:31:28;;;;;;;16.10;3.45;;;;;;;2.72;83.55;100439.03;5088211;28;20044;-51
2020/12/22 04:33:56;;;;;;;12.93;3.60;;;;;;;2.70;83.62;100440.44;5095536;28;20043;-55
2020/12/22 04:36:24;;;;;;;9.27;4.13;;;;;;;2.72;84.01;100439.03;5089869;28;20036;-52
2020/12/22 04:38:51;;;;;;;5.70;3.70;;;;;;;2.72;83.79;100451.88;5068892;28;20436;-53
2020/12/22 04:41:19;;;;;;;11.40;4.47;;;;;;;2.65;84.10;100444.03;5057226;28;20099;-52
2020/12/22 04:43:46;;;;;;;8.15;4.35;;;;;;;2.63;84.22;100446.28;5089519;28;20452;-55
2020/12/22 04:46:18;;;;;;;9.32;4.63;;;;;;;2.62;83.84;100450.09;5082098;28;20082;-53
2020/12/22 04:48:50;;;;;;;10.50;3.90;;;;;;;2.61;84.15;100453.97;5074772;28;20049;-53
2020/12/22 04:51:18;;;;;;;9.90;4.05;;;;;;;2.63;84.17;100451.75;5075142;28;20127;-53
2020/12/22 04:54:05;;;;;;;8.75;4.20;;;;;;;2.66;83.82;100462.06;5070052;28;20111;-55
2020/12/22 04:56:32;;;;;;;6.90;3.78;;;;;;;2.66;84.01;100462.06;5077168;28;20040;-54
2020/12/22 04:58:59;;;;;;;9.88;3.97;;;;;;;2.70;83.95;100460.34;5085321;28;20048;-52
2020/12/22 05:01:26;;;;;;;8.98;3.53;;;;;;;2.75;84.34;100473.13;5093138;28;20040;-53
2020/12/22 05:03:52;;;;;;;5.30;2.90;;;;;;;2.80;84.04;100473.88;5076261;28;20040;-52
2020/12/22 05:06:19;;;;;;;12.52;4.15;;;;;;;2.84;84.23;100483.06;5095686;28;20047;-57
2020/12/22 05:08:45;;;;;;;13.15;4.13;;;;;;;2.84;83.86;100479.53;5084891;28;20079;-49
2020/12/22 05:11:16;;;;;;;12.50;3.88;;;;;;;2.89;83.98;100488.44;5077917;28;20090;-54
2020/12/22 05:13:46;;;;;;;10.48;3.53;;;;;;;2.92;84.09;100482.38;5065528;28;20440;-54
2020/12/22 05:16:12;;;;;;;11.50;3.42;;;;;;;2.96;83.94;100475.22;5081413;28;20102;-52
2020/12/22 05:18:38;;;;;;;10.82;3.83;;;;;;;3.00;83.94;100492.63;5081570;28;20110;-56
2020/12/22 05:21:19;;;;;;;7.60;3.55;;;;;;;3.02;83.65;100487.66;5079125;28;20127;-51
2020/12/22 05:23:48;;;;;;;8.75;3.42;;;;;;;3.03;84.09;100494.75;5073703;28;20132;-53
2020/12/22 05:26:18;;;;;;;8.20;4.43;;;;;;;3.06;83.53;100499.63;5074782;28;20036;-53
2020/12/22 05:28:44;;;;;;;8.70;2.95;;;;;;;3.06;83.94;100507.84;5084337;28;20043;-54
2020/12/22 05:31:15;;;;;;;7.13;3.40;;;;;;;3.05;83.88;100506.22;5078066;28;20424;-51
2020/12/22 05:33:46;;;;;;;12.73;3.55;;;;;;;3.06;83.84;100513.31;5077948;28;20498;-58
2020/12/22 05:36:13;;;;;;;10.45;4.07;;;;;;;3.04;84.00;100510.03;5060267;28;20056;-56
2020/12/22 05:38:43;;;;;;;10.10;3.53;;;;;;;3.04;83.52;100515.50;5078281;28;20040;-53
2020/12/22 05:41:09;;;;;;;9.02;3.15;;;;;;;3.05;83.93;100514.41;5072938;28;20051;-55
2020/12/22 05:43:45;;;;;;;6.07;3.10;;;;;;;3.08;83.67;100518.47;5092686;28;20040;-55
2020/12/22 05:46:11;;;;;;;8.95;3.33;;;;;;;3.08;83.81;100515.72;5095205;28;20044;-52
2020/12/22 05:48:37;;;;;;;7.22;3.60;;;;;;;3.06;83.44;100527.00;5090776;28;20060;-54
2020/12/22 05:51:08;;;;;;;7.43;3.17;;;;;;;3.08;83.77;100513.00;5089300;28;20048;-53
2020/12/22 05:53:45;;;;;;;7.43;3.20;;;;;;;3.09;83.48;100520.09;5082744;28;20047;-54
2020/12/22 05:56:19;;;;;;;5.70;3.72;;;;;;;3.09;83.64;100525.56;5056642;28;20494;-52
2020/12/22 05:58:45;;;;;;;9.88;3.20;;;;;;;3.11;83.75;100528.00;5059767;28;20485;-50
2020/12/22 06:01:12;;;;;;;6.53;2.65;;;;;;;3.15;83.45;100535.28;5089110;28;20481;-55
2020/12/22 06:03:42;;;;;;;8.52;2.22;;;;;;;3.16;83.76;100547.03;5075301;28;20048;-51
2020/12/22 06:06:08;;;;;;;7.32;3.78;;;;;;;3.17;83.52;100540.47;5055092;28;20047;-56
2020/12/22 06:08:36;;;;;;;13.25;2.80;;;;;;;3.19;83.42;100547.25;5069755;28;20052;-52
2020/12/22 06:11:03;;;;;;;8.45;2.80;;;;;;;3.20;83.45;100557.09;5058241;28;20075;-52
2020/12/22 06:13:30;;;;;;;6.97;2.33;;;;;;;3.23;83.38;100569.38;5094828;28;20416;-54
2020/12/22 06:15:56;;;;;;;6.38;2.13;;;;;;;3.22;83.22;100562.25;5078203;28;20095;-51
2020/12/22 06:18:23;;;;;;;8.38;2.20;;;;;;;3.24;83.54;100560.84;5073785;28;20114;-54
2020/12/22 06:20:49;;;;;;;13.43;4.45;;;;;;;3.25;83.07;100558.94;5079622;28;20044;-54
2020/12/22 06:23:19;;;;;;;5.72;2.30;;;;;;;3.25;82.89;100558.94;5079259;28;20047;-52
2020/12/22 06:25:46;;;;;;;9.07;2.95;;;;;;;3.23;83.12;100559.22;5071335;28;20066;-51
2020/12/22 06:28:32;;;;;;;7.47;2.20;;;;;;;3.20;83.21;100565.31;5094144;28;20054;-55
2020/12/22 06:30:59;;;;;;;6.05;2.42;;;;;;;3.19;83.34;100558.22;5082124;28;20036;-51
2020/12/22 06:33:36;;;;;;;7.68;2.53;;;;;;;3.22;83.04;100567.72;5093769;28;20032;-51
2020/12/22 06:36:04;;;;;;;5.38;2.55;;;;;;;3.21;82.83;100557.91;5074388;28;20452;-53
2020/12/22 06:38:56;;;;;;;6.57;2.33;;;;;;;3.19;83.07;100558.22;5073705;28;20032;-52
2020/12/22 06:41:33;;;;;;;6.43;2.15;;;;;;;3.21;83.11;100560.63;5071686;28;20036;-54
2020/12/22 06:44:26;;;;;;;8.60;1.88;;;;;;;3.17;83.08;100554.16;5081368;28;20051;-54
2020/12/22 06:46:57;;;;;;;10.27;4.38;;;;;;;3.19;82.87;100566.41;5077433;28;20445;-55
2020/12/22 06:49:49;;;;;;;10.77;2.40;;;;;;;3.18;83.27;100555.78;5066203;28;20047;-52
2020/12/22 06:52:42;;;;;;;3.92;1.98;;;;;;;3.17;82.89;100556.88;5078495;28;20040;-54
2020/12/22 06:55:52;;;;;;;5.22;2.25;;;;;;;3.15;83.35;100550.91;5093210;28;20405;-55
2020/12/22 06:58:38;;;;;;;4.47;1.92;;;;;;;3.13;83.29;100561.31;5088563;28;20058;-53
2020/12/22 07:01:24;;;;;;;9.40;2.47;;;;;;;3.14;83.32;100554.75;5083874;28;20047;-54
2020/12/22 07:04:11;;;;;;;5.03;2.50;;;;;;;3.17;83.48;100554.16;5078437;28;20105;-54
2020/12/22 07:06:46;;;;;;;6.50;3.15;;;;;;;3.16;83.47;100549.78;5073118;28;20076;-56
2020/12/22 07:09:30;;;;;;;7.43;2.15;;;;;;;3.15;83.36;100553.66;5061395;28;20052;-56
2020/12/22 07:12:19;;;;;;;5.63;2.30;;;;;;;3.12;83.28;100554.25;5053376;28;20453;-51
2020/12/22 07:14:50;;;;;;;4.93;2.25;;;;;;;3.13;83.48;100555.84;5068210;28;20120;-56
2020/12/22 07:17:21;;;;;;;6.40;3.00;;;;;;;3.14;83.17;100550.09;5035700;28;20086;-56
2020/12/22 07:19:54;;;;;;;13.75;2.70;;;;;;;3.14;83.20;100557.47;5053663;28;20064;-54
2020/12/22 07:22:33;;;;;;;6.88;2.10;;;;;;;3.11;82.91;100544.41;5072939;28;20032;-55
2020/12/22 07:25:01;;;;;;;7.20;2.90;;;;;;;3.11;83.28;100549.88;5058440;28;20040;-52
2020/12/22 07:27:28;;;;;;;6.55;2.17;;;;;;;3.08;83.03;100554.84;5055234;28;20051;-52
2020/12/22 07:29:55;;;;;;;5.43;3.28;;;;;;;3.08;83.20;100557.56;5087729;28;20098;-54
2020/12/22 07:32:23;;;;;;;5.72;1.85;;;;;;;3.08;83.09;100552.09;5070553;28;20061;-56
2020/12/22 07:34:50;;;;;;;5.00;1.92;;;;;;;3.08;82.85;100557.56;5057549;28;20123;-56
2020/12/22 07:37:17;;;;;;;6.93;2.10;;;;;;;3.07;83.15;100555.94;5073919;28;20032;-54
2020/12/22 07:39:43;;;;;;;5.53;1.88;;;;;;;3.09;82.87;100566.59;5072825;28;20106;-56
2020/12/22 07:42:14;;;;;;;7.88;2.50;;;;;;;3.11;82.97;100560.81;5066836;28;20048;-56
2020/12/22 07:44:42;;;;;;;6.15;1.90;;;;;;;3.08;82.79;100556.75;5091071;28;20040;-56
2020/12/22 07:47:10;;;;;;;6.35;2.92;;;;;;;3.08;83.08;100559.50;5072227;28;20067;-53
2020/12/22 07:49:38;;;;;;;4.38;1.73;;;;;;;3.10;82.93;100562.72;5058323;28;20052;-52
2020/12/22 07:52:14;;;;;;;7.53;1.98;;;;;;;3.11;82.75;100564.38;5070705;28;20047;-56
2020/12/22 07:54:40;;;;;;;5.03;1.60;;;;;;;3.11;82.74;100561.63;5061330;28;20101;-54
2020/12/22 07:57:09;;;;;;;4.85;1.90;;;;;;;3.10;82.87;100559.22;5082431;28;20125;-54
2020/12/22 07:59:36;;;;;;;3.08;1.80;;;;;;;3.10;83.03;100565.47;5092404;28;20478;-55
2020/12/22 08:02:02;;;;;;;8.55;2.67;;;;;;;3.09;83.04;100566.59;5073326;28;20048;-54
2020/12/22 08:04:29;;;;;;;6.00;3.13;;;;;;;3.08;82.92;100571.25;5082641;28;20438;-56
2020/12/22 08:07:07;;;;;;;8.20;3.20;;;;;;;3.09;83.00;100585.75;5079495;28;20071;-52
2020/12/22 08:09:35;;;;;;;5.13;2.33;;;;;;;3.08;82.61;100584.94;5087599;28;20036;-55
2020/12/22 08:12:07;;;;;;;7.90;3.90;;;;;;;3.10;82.55;100581.09;5056332;28;20045;-54
2020/12/22 08:14:37;;;;;;;4.18;2.60;;;;;;;3.06;82.54;100576.22;5087590;28;20036;-54
2020/12/22 08:17:10;;;;;;;9.25;2.88;;;;;;;3.04;82.23;100594.81;5076876;28;20044;-51
2020/12/22 08:19:38;;;;;;;8.93;2.83;;;;;;;3.00;82.41;100593.81;5079038;28;20478;-51
2020/12/22 08:22:06;;;;;;;6.47;3.10;;;;;;;2.99;82.43;100608.59;5071089;28;20036;-51
2020/12/22 08:24:36;;;;;;;4.60;1.85;;;;;;;2.93;82.31;100608.97;5076703;28;20119;-51
2020/12/22 08:27:04;;;;;;;7.00;2.65;;;;;;;2.91;82.54;100614.72;5078392;28;20037;-51
2020/12/22 08:29:31;;;;;;;8.90;2.90;;;;;;;2.89;82.65;100614.22;5059087;28;20094;-54
2020/12/22 08:32:00;;;;;;;9.98;3.08;;;;;;;2.87;82.24;100621.09;5075943;28;20036;-54
2020/12/22 08:34:28;;;;;;;6.47;3.15;;;;;;;2.83;82.46;100620.88;5079785;28;20486;-52
2020/12/22 08:36:54;;;;;;;10.25;3.13;;;;;;;2.79;82.31;100617.13;5071760;28;20162;-55
2020/12/22 08:39:26;;;;;;;8.07;3.65;;;;;;;2.77;82.32;100616.59;5074954;28;20044;-52
2020/12/22 08:41:53;;;;;;;6.45;2.85;;;;;;;2.75;82.56;100624.31;5088170;28;20123;-54
2020/12/22 08:44:21;;;;;;;8.68;3.47;;;;;;;2.73;82.78;100634.69;5078953;28;20048;-54
2020/12/22 08:46:48;;;;;;;10.73;4.40;;;;;;;2.72;nan;100635.81;5082910;28;20094;-54
2020/12/22 08:49:28;;;;;;;12.55;3.65;;;;;;;2.70;82.37;100646.22;5074509;28;20096;-50
2020/12/22 08:52:08;;;;;;;11.35;3.47;;;;;;;2.67;82.38;100640.53;5083158;28;20086;-53
2020/12/22 08:54:35;;;;;;;11.95;4.05;;;;;;;2.65;82.56;100640.81;5064144;28;20453;-50
2020/12/22 08:57:15;;;;;;;9.73;4.50;;;;;;;2.62;82.51;100635.94;5081647;28;20040;-54
2020/12/22 08:59:43;;;;;;;5.90;3.58;;;;;;;2.59;82.80;100633.81;5093605;28;20035;-53
2020/12/22 09:02:27;;;;;;;8.40;3.33;;;;;;;2.60;83.05;100638.16;5081613;28;20044;-54
2020/12/22 09:04:54;;;;;;;9.70;3.35;;;;;;;2.63;82.63;100644.97;5087065;28;20064;-53
2020/12/22 09:07:26;;;;;;;15.30;5.07;;;;;;;2.63;83.06;100662.19;5060843;28;20033;-53
2020/12/22 09:09:54;;;;;;;9.70;4.57;;;;;;;2.64;83.13;100660.25;5075367;28;20474;-51
2020/12/22 09:12:20;;;;;;;13.00;3.92;;;;;;;2.66;82.91;100663.50;5092815;28;20097;-54
2020/12/22 09:14:48;;;;;;;10.90;4.47;;;;;;;2.67;82.91;100667.88;5060525;28;20049;-52
2020/12/22 09:17:29;;;;;;;15.18;6.57;;;;;;;2.67;82.71;100665.97;5054320;28;20387;-56
2020/12/22 09:19:59;;;;;;;13.63;6.95;;;;;;;2.68;82.85;100669.47;5090206;28;20040;-54
2020/12/22 09:22:28;;;;;;;18.90;7.68;;;;;;;2.68;82.92;100667.56;5078115;28;20101;-52
2020/12/22 09:24:56;;;;;;;15.50;7.35;;;;;;;2.68;82.80;100680.41;5091170;28;20039;-55
2020/12/22 09:27:29;;;;;;;9.45;5.22;;;;;;;2.65;82.83;100673.63;5058762;28;20037;-54
2020/12/22 09:29:56;;;;;;;15.00;6.70;;;;;;;2.63;83.03;100675.03;5081438;28;20089;-56
2020/12/22 09:32:23;;;;;;;11.70;4.15;;;;;;;2.61;83.11;100667.13;5065527;28;20112;-53
2020/12/22 09:34:50;;;;;;;8.60;3.30;;;;;;;2.62;83.37;100657.00;5052092;28;20094;-56
2020/12/22 09:37:17;;;;;;;8.05;3.45;;;;;;;2.62;83.40;100674.19;5085822;28;20044;-54
2020/12/22 09:39:45;;;;;;;9.75;4.90;;;;;;;2.65;83.42;100662.69;5071447;28;20114;-53
2020/12/22 09:42:11;;;;;;;17.70;6.20;;;;;;;2.67;83.61;100667.88;5060091;28;20456;-52
2020/12/22 09:44:38;;;;;;;11.38;5.28;;;;;;;2.73;83.39;100672.13;5081987;28;20048;-54
2020/12/22 09:47:04;;;;;;;12.57;4.95;;;;;;;2.77;83.58;100678.66;5084950;28;20451;-54
2020/12/22 09:49:31;;;;;;;27.90;10.25;;;;;;;2.80;83.75;100680.81;5059388;28;20505;-53
2020/12/22 09:51:58;;;;;;;23.73;10.27;;;;;;;2.87;83.33;100683.97;5080231;28;20044;-53
2020/12/22 09:54:25;;;;;;;16.58;5.85;;;;;;;2.92;83.37;100694.84;5070768;28;20068;-56
2020/12/22 09:56:52;;;;;;;35.58;11.88;;;;;;;2.99;83.40;100698.81;5079699;28;20082;-54
2020/12/22 09:59:18;;;;;;;31.17;10.35;;;;;;;3.07;83.51;100705.56;5084715;28;20040;-51
2020/12/22 10:01:46;;;;;;;12.45;4.32;;;;;;;3.14;83.59;100713.38;5044479;28;20052;-51
2020/12/22 10:04:13;;;;;;;14.25;4.00;;;;;;;3.20;83.52;100712.22;5051809;28;20051;-51
2020/12/22 10:06:39;;;;;;;18.33;4.50;;;;;;;3.28;83.06;100730.69;5069340;28;20041;-52
2020/12/22 10:09:06;;;;;;;11.23;5.22;;;;;;;3.34;83.28;100732.22;5073625;28;20051;-49
2020/12/22 10:11:34;;;;;;;15.82;5.65;;;;;;;3.41;83.39;100729.94;5059520;28;20044;-52
2020/12/22 10:14:02;;;;;;;14.10;6.20;;;;;;;3.46;83.32;100738.06;5036678;28;20132;-51
2020/12/22 10:16:29;;;;;;;15.68;6.43;;;;;;;3.53;83.44;100744.78;5069863;28;20493;-52
2020/12/22 10:18:55;;;;;;;21.70;6.40;;;;;;;3.62;83.15;100747.66;5080585;28;20032;-52
2020/12/22 10:21:22;;;;;;;16.55;5.53;;;;;;;3.71;83.19;100751.31;5076982;28;20559;-50
2020/12/22 10:23:49;;;;;;;15.70;6.47;;;;;;;3.81;83.02;100751.16;5068780;28;20065;-50
2020/12/22 10:26:26;;;;;;;15.48;6.57;;;;;;;3.90;83.31;100749.34;5059387;28;20386;-52
2020/12/22 10:29:00;;;;;;;18.75;6.78;;;;;;;4.00;83.08;100746.44;5044715;28;20075;-51
2020/12/22 10:31:27;;;;;;;21.23;6.65;;;;;;;4.11;83.54;100749.78;5080775;28;20051;-53
2020/12/22 10:33:56;;;;;;;12.70;4.47;;;;;;;4.21;83.01;100744.94;5085227;28;20551;-54
2020/12/22 10:36:26;;;;;;;12.30;4.57;;;;;;;4.29;83.10;100740.69;5058970;28;20046;-55
2020/12/22 10:38:54;;;;;;;14.35;4.60;;;;;;;4.37;82.82;100763.84;5071350;28;20037;-52
2020/12/22 10:41:21;;;;;;;13.10;4.32;;;;;;;4.44;82.98;100756.84;5081251;28;20075;-49
2020/12/22 10:43:50;;;;;;;12.90;5.45;;;;;;;4.52;82.93;100752.56;5072277;28;20036;-53
2020/12/22 10:46:16;;;;;;;11.05;4.20;;;;;;;4.57;82.48;100742.31;5084521;28;20040;-53
2020/12/22 10:48:46;;;;;;;12.68;4.22;;;;;;;4.62;82.59;100738.66;5076054;28;20571;-53
2020/12/22 10:51:13;;;;;;;19.67;6.22;;;;;;;4.66;82.67;100743.22;5079263;28;20049;-54
2020/12/22 10:53:42;;;;;;;12.50;5.45;;;;;;;4.69;81.54;100741.78;5072393;28;20044;-51
2020/12/22 10:56:17;;;;;;;8.95;3.47;;;;;;;4.70;81.79;100751.66;5073204;28;20041;-56
2020/12/22 10:58:44;;;;;;;10.30;3.35;;;;;;;4.71;81.74;100747.81;5090220;28;20128;-50
2020/12/22 11:01:17;;;;;;;6.05;3.03;;;;;;;4.74;81.79;100745.25;5084095;28;20047;-52
2020/12/22 11:03:44;;;;;;;16.05;5.07;;;;;;;4.78;81.83;100731.75;5083995;28;20470;-55
2020/12/22 11:07:03;;;;;;;8.15;2.72;;;;;;;4.82;81.59;100743.69;5077016;28;20063;-53
2020/12/22 11:09:07;;;;;;;5.47;2.72;;;;;;;4.84;81.62;100736.00;5042741;28;20060;-54
2020/12/22 11:11:42;;;;;;;8.23;2.85;;;;;;;4.87;81.61;100732.66;5068076;28;20048;-53
2020/12/22 11:14:08;;;;;;;8.93;4.03;;;;;;;4.89;81.69;100722.19;5072062;28;20131;-53
2020/12/22 11:16:35;;;;;;;11.40;4.35;;;;;;;4.91;81.91;100719.94;5076871;28;20071;-53
2020/12/22 11:19:01;;;;;;;9.15;3.08;;;;;;;4.90;81.58;100718.28;5072786;28;20700;-55
2020/12/22 11:21:27;;;;;;;10.52;3.97;;;;;;;4.90;81.51;100712.81;5070702;28;20083;-54
2020/12/22 11:23:53;;;;;;;10.50;2.85;;;;;;;4.92;81.38;100719.59;5072244;28;20090;-52
2020/12/22 11:26:21;;;;;;;5.03;2.00;;;;;;;4.92;81.32;100721.56;5076094;28;20130;-53
2020/12/22 11:28:49;;;;;;;14.50;2.60;;;;;;;4.93;81.12;100712.19;5080090;28;20044;-54
2020/12/22 11:31:15;;;;;;;8.43;3.15;;;;;;;4.95;81.43;100709.94;5055717;28;20105;-56
2020/12/22 11:33:42;;;;;;;7.13;2.33;;;;;;;4.99;81.36;100704.66;5077090;28;20036;-52
2020/12/22 11:36:15;;;;;;;7.35;2.15;;;;;;;5.01;80.81;100697.75;5074615;28;20048;-50
2020/12/22 11:38:44;;;;;;;5.85;2.72;;;;;;;5.02;80.77;100693.91;5076920;28;20805;-53